sensor_id;sensor_type;location;lat;lon;timestamp;pressure;altitude;pressure_sealevel;temperature;humidity
80542;BME280;69870;51.460;8.842;2023-11-18T00:02:17;99300.50;;;-0.08;83.25
80542;BME280;69870;51.460;8.842;2023-11-18T00:04:44;99300.78;;;-0.09;84.01
80542;BME280;69870;51.460;8.842;2023-11-18T00:07:10;99297.28;;;-0.10;83.85
80542;BME280;69870;51.460;8.842;2023-11-18T00:09:37;99298.34;;;-0.11;83.47
80542;BME280;69870;51.460;8.842;2023-11-18T00:12:06;99309.03;;;-0.11;83.57
80542;BME280;69870;51.460;8.842;2023-11-18T00:14:33;99308.22;;;-0.11;83.64
80542;BME280;69870;51.460;8.842;2023-11-18T00:17:00;99311.97;;;-0.12;83.24
80542;BME280;69870;51.460;8.842;2023-11-18T00:19:28;99307.69;;;-0.13;84.14
80542;BME280;69870;51.460;8.842;2023-11-18T00:21:54;99311.16;;;-0.13;83.10
80542;BME280;69870;51.460;8.842;2023-11-18T00:24:21;99310.34;;;-0.13;83.73
80542;BME280;69870;51.460;8.842;2023-11-18T00:26:47;99308.50;;;-0.13;83.21
80542;BME280;69870;51.460;8.842;2023-11-18T00:29:15;99314.66;;;-0.12;83.71
80542;BME280;69870;51.460;8.842;2023-11-18T00:31:42;99303.97;;;-0.12;83.77
80542;BME280;69870;51.460;8.842;2023-11-18T00:34:08;99309.81;;;-0.15;84.05
80542;BME280;69870;51.460;8.842;2023-11-18T00:36:36;99315.97;;;-0.15;83.37
80542;BME280;69870;51.460;8.842;2023-11-18T00:39:03;99312.47;;;-0.15;83.89
80542;BME280;69870;51.460;8.842;2023-11-18T00:41:29;99310.34;;;-0.18;83.18
80542;BME280;69870;51.460;8.842;2023-11-18T00:43:56;99313.25;;;-0.20;84.21
80542;BME280;69870;51.460;8.842;2023-11-18T00:46:24;99314.06;;;-0.19;83.24
80542;BME280;69870;51.460;8.842;2023-11-18T00:48:50;99315.69;;;-0.18;84.20
80542;BME280;69870;51.460;8.842;2023-11-18T00:51:17;99321.81;;;-0.18;84.08
80542;BME280;69870;51.460;8.842;2023-11-18T00:53:44;99324.25;;;-0.16;83.83
80542;BME280;69870;51.460;8.842;2023-11-18T00:56:13;99321.03;;;-0.18;83.71
80542;BME280;69870;51.460;8.842;2023-11-18T00:58:43;99313.81;;;-0.18;84.00
80542;BME280;69870;51.460;8.842;2023-11-18T01:01:09;99312.75;;;-0.17;84.07
80542;BME280;69870;51.460;8.842;2023-11-18T01:03:37;99321.31;;;-0.15;83.80
80542;BME280;69870;51.460;8.842;2023-11-18T01:06:05;99322.13;;;-0.14;83.90
80542;BME280;69870;51.460;8.842;2023-11-18T01:08:32;99321.03;;;-0.13;83.54
80542;BME280;69870;51.460;8.842;2023-11-18T01:10:58;99324.78;;;-0.14;84.36
80542;BME280;69870;51.460;8.842;2023-11-18T01:13:25;99323.72;;;-0.13;83.76
80542;BME280;69870;51.460;8.842;2023-11-18T01:15:52;99333.63;;;-0.14;83.40
80542;BME280;69870;51.460;8.842;2023-11-18T01:18:19;99333.34;;;-0.12;83.54
80542;BME280;69870;51.460;8.842;2023-11-18T01:20:47;99328.28;;;-0.14;83.76
80542;BME280;69870;51.460;8.842;2023-11-18T01:23:13;99330.13;;;-0.14;84.10
80542;BME280;69870;51.460;8.842;2023-11-18T01:25:40;99337.34;;;-0.15;83.95
80542;BME280;69870;51.460;8.842;2023-11-18T01:28:07;99339.47;;;-0.17;84.03
80542;BME280;69870;51.460;8.842;2023-11-18T01:30:34;99341.34;;;-0.17;83.88
80542;BME280;69870;51.460;8.842;2023-11-18T01:33:01;99333.31;;;-0.17;83.53
80542;BME280;69870;51.460;8.842;2023-11-18T01:35:29;99334.41;;;-0.18;84.27
80542;BME280;69870;51.460;8.842;2023-11-18T01:37:58;99333.59;;;-0.19;83.56
80542;BME280;69870;51.460;8.842;2023-11-18T01:40:24;99337.84;;;-0.18;84.18
80542;BME280;69870;51.460;8.842;2023-11-18T01:42:51;99341.59;;;-0.19;84.25
80542;BME280;69870;51.460;8.842;2023-11-18T01:45:17;99342.66;;;-0.20;84.12
80542;BME280;69870;51.460;8.842;2023-11-18T01:47:45;99348.81;;;-0.19;84.35
80542;BME280;69870;51.460;8.842;2023-11-18T01:50:15;99348.25;;;-0.21;84.26
80542;BME280;69870;51.460;8.842;2023-11-18T01:52:44;99344.53;;;-0.20;84.47
80542;BME280;69870;51.460;8.842;2023-11-18T01:55:13;99343.72;;;-0.21;84.00
80542;BME280;69870;51.460;8.842;2023-11-18T01:57:39;99349.06;;;-0.21;84.18
80542;BME280;69870;51.460;8.842;2023-11-18T02:00:10;99353.34;;;-0.20;84.19
80542;BME280;69870;51.460;8.842;2023-11-18T02:02:41;99353.59;;;-0.21;83.61
80542;BME280;69870;51.460;8.842;2023-11-18T02:05:09;99354.41;;;-0.21;83.96
80542;BME280;69870;51.460;8.842;2023-11-18T02:07:38;99347.44;;;-0.22;84.33
80542;BME280;69870;51.460;8.842;2023-11-18T02:10:07;99349.59;;;-0.24;83.71
80542;BME280;69870;51.460;8.842;2023-11-18T02:12:40;99348.78;;;-0.24;83.97
80542;BME280;69870;51.460;8.842;2023-11-18T02:15:10;99352.25;;;-0.24;84.25
80542;BME280;69870;51.460;8.842;2023-11-18T02:17:38;99351.72;;;-0.26;84.70
80542;BME280;69870;51.460;8.842;2023-11-18T02:20:08;99346.31;;;-0.31;83.69
80542;BME280;69870;51.460;8.842;2023-11-18T02:22:41;99354.59;;;-0.32;83.61
80542;BME280;69870;51.460;8.842;2023-11-18T02:25:09;99346.88;;;-0.34;84.57
80542;BME280;69870;51.460;8.842;2023-11-18T02:27:37;99349.00;;;-0.36;84.50
80542;BME280;69870;51.460;8.842;2023-11-18T02:30:05;99348.41;;;-0.38;83.94
80542;BME280;69870;51.460;8.842;2023-11-18T02:32:42;99349.75;;;-0.40;84.64
80542;BME280;69870;51.460;8.842;2023-11-18T02:35:15;99352.66;;;-0.42;84.26
80542;BME280;69870;51.460;8.842;2023-11-18T02:37:44;99346.53;;;-0.42;84.56
80542;BME280;69870;51.460;8.842;2023-11-18T02:40:16;99357.47;;;-0.44;83.94
80542;BME280;69870;51.460;8.842;2023-11-18T02:42:48;99360.94;;;-0.43;84.39
80542;BME280;69870;51.460;8.842;2023-11-18T02:45:19;99358.00;;;-0.47;84.10
80542;BME280;69870;51.460;8.842;2023-11-18T02:47:47;99346.50;;;-0.47;84.11
80542;BME280;69870;51.460;8.842;2023-11-18T02:50:14;99352.88;;;-0.48;84.26
80542;BME280;69870;51.460;8.842;2023-11-18T02:52:41;99350.47;;;-0.50;84.25
80542;BME280;69870;51.460;8.842;2023-11-18T02:55:08;99348.84;;;-0.51;83.89
80542;BME280;69870;51.460;8.842;2023-11-18T02:57:35;99348.31;;;-0.53;83.99
80542;BME280;69870;51.460;8.842;2023-11-18T03:00:05;99349.38;;;-0.54;83.87
80542;BME280;69870;51.460;8.842;2023-11-18T03:02:36;99342.44;;;-0.55;84.13
80542;BME280;69870;51.460;8.842;2023-11-18T03:05:05;99346.94;;;-0.55;84.22
80542;BME280;69870;51.460;8.842;2023-11-18T03:07:32;99349.91;;;-0.57;83.98
80542;BME280;69870;51.460;8.842;2023-11-18T03:09:59;99349.06;;;-0.57;84.00
80542;BME280;69870;51.460;8.842;2023-11-18T03:12:26;99345.63;;;-0.58;83.94
80542;BME280;69870;51.460;8.842;2023-11-18T03:14:53;99351.19;;;-0.59;83.91
80542;BME280;69870;51.460;8.842;2023-11-18T03:17:21;99345.59;;;-0.63;84.39
80542;BME280;69870;51.460;8.842;2023-11-18T03:19:48;99337.03;;;-0.65;84.57
80542;BME280;69870;51.460;8.842;2023-11-18T03:22:15;99335.94;;;-0.69;84.48
80542;BME280;69870;51.460;8.842;2023-11-18T03:24:42;99330.00;;;-0.71;84.27
80542;BME280;69870;51.460;8.842;2023-11-18T03:27:09;99339.38;;;-0.73;84.09
80542;BME280;69870;51.460;8.842;2023-11-18T03:29:35;99337.47;;;-0.73;84.41
80542;BME280;69870;51.460;8.842;2023-11-18T03:32:02;99339.59;;;-0.75;84.23
80542;BME280;69870;51.460;8.842;2023-11-18T03:34:31;99333.97;;;-0.79;84.39
80542;BME280;69870;51.460;8.842;2023-11-18T03:36:58;99338.50;;;-0.79;84.52
80542;BME280;69870;51.460;8.842;2023-11-18T03:39:24;99334.25;;;-0.80;84.17
80542;BME280;69870;51.460;8.842;2023-11-18T03:41:52;99332.63;;;-0.81;84.37
80542;BME280;69870;51.460;8.842;2023-11-18T03:44:19;99330.50;;;-0.79;84.61
80542;BME280;69870;51.460;8.842;2023-11-18T03:46:45;99325.16;;;-0.79;84.53
80542;BME280;69870;51.460;8.842;2023-11-18T03:49:12;99328.09;;;-0.81;84.52
80542;BME280;69870;51.460;8.842;2023-11-18T03:51:39;99326.78;;;-0.78;84.69
80542;BME280;69870;51.460;8.842;2023-11-18T03:54:06;99324.66;;;-0.76;84.38
80542;BME280;69870;51.460;8.842;2023-11-18T03:56:34;99319.31;;;-0.76;83.80
80542;BME280;69870;51.460;8.842;2023-11-18T03:59:00;99315.56;;;-0.75;84.09
80542;BME280;69870;51.460;8.842;2023-11-18T04:01:29;99322.00;;;-0.76;84.18
80542;BME280;69870;51.460;8.842;2023-11-18T04:03:55;99319.00;;;-0.80;83.66
80542;BME280;69870;51.460;8.842;2023-11-18T04:06:22;99309.63;;;-0.82;83.99
80542;BME280;69870;51.460;8.842;2023-11-18T04:08:51;99318.41;;;-0.87;83.63
80542;BME280;69870;51.460;8.842;2023-11-18T04:11:17;99320.00;;;-0.91;84.58
80542;BME280;69870;51.460;8.842;2023-11-18T04:13:44;99320.25;;;-0.92;84.42
80542;BME280;69870;51.460;8.842;2023-11-18T04:16:11;99320.50;;;-0.94;83.94
80542;BME280;69870;51.460;8.842;2023-11-18T04:18:39;99319.44;;;-0.93;84.39
80542;BME280;69870;51.460;8.842;2023-11-18T04:21:06;99314.38;;;-0.94;84.18
80542;BME280;69870;51.460;8.842;2023-11-18T04:23:34;99318.09;;;-0.95;84.71
80542;BME280;69870;51.460;8.842;2023-11-18T04:26:02;99311.97;;;-0.96;84.64
80542;BME280;69870;51.460;8.842;2023-11-18T04:28:29;99314.88;;;-0.97;84.47
80542;BME280;69870;51.460;8.842;2023-11-18T04:30:56;99314.88;;;-0.97;84.11
80542;BME280;69870;51.460;8.842;2023-11-18T04:33:23;99310.59;;;-0.98;84.42
80542;BME280;69870;51.460;8.842;2023-11-18T04:35:50;99313.28;;;-0.98;84.47
80542;BME280;69870;51.460;8.842;2023-11-18T04:38:17;99306.84;;;-0.97;84.07
80542;BME280;69870;51.460;8.842;2023-11-18T04:40:44;99306.31;;;-0.99;84.09
80542;BME280;69870;51.460;8.842;2023-11-18T04:43:12;99308.16;;;-1.00;84.08
80542;BME280;69870;51.460;8.842;2023-11-18T04:45:40;99307.88;;;-1.03;83.87
80542;BME280;69870;51.460;8.842;2023-11-18T04:48:06;99311.03;;;-1.06;84.54
80542;BME280;69870;51.460;8.842;2023-11-18T04:50:33;99297.97;;;-1.08;84.69
80542;BME280;69870;51.460;8.842;2023-11-18T04:52:59;99303.84;;;-1.06;84.17
80542;BME280;69870;51.460;8.842;2023-11-18T04:55:27;99302.25;;;-1.07;83.89
80542;BME280;69870;51.460;8.842;2023-11-18T04:57:54;99311.03;;;-1.06;84.39
80542;BME280;69870;51.460;8.842;2023-11-18T05:00:22;99303.31;;;-1.08;84.65
80542;BME280;69870;51.460;8.842;2023-11-18T05:02:50;99292.91;;;-1.09;84.46
80542;BME280;69870;51.460;8.842;2023-11-18T05:05:17;99287.00;;;-1.11;84.26
80542;BME280;69870;51.460;8.842;2023-11-18T05:07:43;99289.69;;;-1.11;84.18
80542;BME280;69870;51.460;8.842;2023-11-18T05:10:10;99288.06;;;-1.12;84.35
80542;BME280;69870;51.460;8.842;2023-11-18T05:12:37;99281.09;;;-1.13;84.54
80542;BME280;69870;51.460;8.842;2023-11-18T05:15:06;99280.56;;;-1.15;84.73
80542;BME280;69870;51.460;8.842;2023-11-18T05:17:34;99276.28;;;-1.16;84.11
80542;BME280;69870;51.460;8.842;2023-11-18T05:20:02;99278.41;;;-1.18;84.41
80542;BME280;69870;51.460;8.842;2023-11-18T05:22:28;99273.84;;;-1.23;84.04
80542;BME280;69870;51.460;8.842;2023-11-18T05:24:56;99264.47;;;-1.25;84.23
80542;BME280;69870;51.460;8.842;2023-11-18T05:27:23;99270.84;;;-1.26;84.44
80542;BME280;69870;51.460;8.842;2023-11-18T05:29:50;99261.00;;;-1.26;84.22
80542;BME280;69870;51.460;8.842;2023-11-18T05:32:20;99263.66;;;-1.26;84.19
80542;BME280;69870;51.460;8.842;2023-11-18T05:34:49;99267.94;;;-1.25;84.42
80542;BME280;69870;51.460;8.842;2023-11-18T05:37:19;99277.00;;;-1.26;84.27
80542;BME280;69870;51.460;8.842;2023-11-18T05:39:45;99278.56;;;-1.30;84.05
80542;BME280;69870;51.460;8.842;2023-11-18T05:42:14;99271.88;;;-1.32;84.32
80542;BME280;69870;51.460;8.842;2023-11-18T05:44:41;99284.16;;;-1.31;83.88
80542;BME280;69870;51.460;8.842;2023-11-18T05:47:08;99282.84;;;-1.29;84.04
80542;BME280;69870;51.460;8.842;2023-11-18T05:49:37;99284.44;;;-1.28;84.34
80542;BME280;69870;51.460;8.842;2023-11-18T05:52:05;99273.22;;;-1.30;84.35
80542;BME280;69870;51.460;8.842;2023-11-18T05:54:32;99269.75;;;-1.30;84.19
80542;BME280;69870;51.460;8.842;2023-11-18T05:56:58;99271.06;;;-1.33;84.55
80542;BME280;69870;51.460;8.842;2023-11-18T05:59:25;99260.66;;;-1.34;84.20
80542;BME280;69870;51.460;8.842;2023-11-18T06:01:52;99260.91;;;-1.36;84.37
80542;BME280;69870;51.460;8.842;2023-11-18T06:04:19;99252.91;;;-1.36;84.67
80542;BME280;69870;51.460;8.842;2023-11-18T06:06:46;99250.25;;;-1.36;84.14
80542;BME280;69870;51.460;8.842;2023-11-18T06:09:14;99253.16;;;-1.37;84.46
80542;BME280;69870;51.460;8.842;2023-11-18T06:11:46;99255.03;;;-1.38;84.17
80542;BME280;69870;51.460;8.842;2023-11-18T06:14:12;99245.41;;;-1.39;84.41
80542;BME280;69870;51.460;8.842;2023-11-18T06:16:39;99255.28;;;-1.39;84.11
80542;BME280;69870;51.460;8.842;2023-11-18T06:19:06;99246.22;;;-1.38;84.25
80542;BME280;69870;51.460;8.842;2023-11-18T06:21:33;99243.56;;;-1.38;83.95
80542;BME280;69870;51.460;8.842;2023-11-18T06:24:00;99257.19;;;-1.35;84.09
80542;BME280;69870;51.460;8.842;2023-11-18T06:26:30;99254.28;;;-1.33;84.18
80542;BME280;69870;51.460;8.842;2023-11-18T06:28:57;99251.59;;;-1.33;84.61
80542;BME280;69870;51.460;8.842;2023-11-18T06:31:24;99252.38;;;-1.33;84.43
80542;BME280;69870;51.460;8.842;2023-11-18T06:33:51;99259.34;;;-1.32;83.84
80542;BME280;69870;51.460;8.842;2023-11-18T06:36:18;99260.72;;;-1.29;83.76
80542;BME280;69870;51.460;8.842;2023-11-18T06:38:46;99269.81;;;-1.25;84.22
80542;BME280;69870;51.460;8.842;2023-11-18T06:41:14;99275.19;;;-1.20;84.04
80542;BME280;69870;51.460;8.842;2023-11-18T06:43:44;99273.06;;;-1.18;83.86
80542;BME280;69870;51.460;8.842;2023-11-18T06:46:27;99274.66;;;-1.17;83.50
80542;BME280;69870;51.460;8.842;2023-11-18T06:48:57;99265.09;;;-1.13;83.78
80542;BME280;69870;51.460;8.842;2023-11-18T06:51:25;99264.16;;;-0.97;84.00
80542;BME280;69870;51.460;8.842;2023-11-18T06:53:53;99263.16;;;-0.86;83.95
80542;BME280;69870;51.460;8.842;2023-11-18T06:56:20;99267.25;;;-0.79;83.81
80542;BME280;69870;51.460;8.842;2023-11-18T06:58:48;99271.81;;;-0.74;83.53
80542;BME280;69870;51.460;8.842;2023-11-18T07:01:15;99268.59;;;-0.71;83.88
80542;BME280;69870;51.460;8.842;2023-11-18T07:03:42;99269.72;;;-0.67;82.98
80542;BME280;69870;51.460;8.842;2023-11-18T07:06:09;99265.75;;;-0.64;83.35
80542;BME280;69870;51.460;8.842;2023-11-18T07:08:36;99269.19;;;-0.64;83.17
80542;BME280;69870;51.460;8.842;2023-11-18T07:11:05;99269.75;;;-0.62;83.50
80542;BME280;69870;51.460;8.842;2023-11-18T07:13:32;99279.91;;;-0.59;82.91
80542;BME280;69870;51.460;8.842;2023-11-18T07:16:01;99271.94;;;-0.54;83.10
80542;BME280;69870;51.460;8.842;2023-11-18T07:18:28;99270.88;;;-0.53;82.63
80542;BME280;69870;51.460;8.842;2023-11-18T07:20:56;99268.75;;;-0.51;82.73
80542;BME280;69870;51.460;8.842;2023-11-18T07:23:23;99271.16;;;-0.49;82.78
80542;BME280;69870;51.460;8.842;2023-11-18T07:25:49;99260.75;;;-0.46;82.71
80542;BME280;69870;51.460;8.842;2023-11-18T07:28:16;99253.28;;;-0.44;82.57
80542;BME280;69870;51.460;8.842;2023-11-18T07:30:42;99245.81;;;-0.42;82.20
80542;BME280;69870;51.460;8.842;2023-11-18T07:33:13;99264.56;;;-0.37;82.66
80542;BME280;69870;51.460;8.842;2023-11-18T07:35:41;99264.03;;;-0.34;83.13
80542;BME280;69870;51.460;8.842;2023-11-18T07:38:07;99275.81;;;-0.30;82.73
80542;BME280;69870;51.460;8.842;2023-11-18T07:40:35;99276.09;;;-0.31;82.52
80542;BME280;69870;51.460;8.842;2023-11-18T07:43:03;99277.94;;;-0.32;83.13
80542;BME280;69870;51.460;8.842;2023-11-18T07:45:34;99277.41;;;-0.29;82.75
80542;BME280;69870;51.460;8.842;2023-11-18T07:48:03;99288.13;;;-0.24;82.69
80542;BME280;69870;51.460;8.842;2023-11-18T07:50:33;99289.25;;;-0.15;82.89
80542;BME280;69870;51.460;8.842;2023-11-18T07:53:00;99286.06;;;-0.07;82.01
80542;BME280;69870;51.460;8.842;2023-11-18T07:55:26;99290.38;;;0.05;81.71
80542;BME280;69870;51.460;8.842;2023-11-18T07:57:53;99288.56;;;0.10;81.61
80542;BME280;69870;51.460;8.842;2023-11-18T08:00:20;99294.75;;;0.26;82.37
80542;BME280;69870;51.460;8.842;2023-11-18T08:02:49;99282.81;;;0.79;81.20
80542;BME280;69870;51.460;8.842;2023-11-18T08:05:17;99280.16;;;1.24;79.62
80542;BME280;69870;51.460;8.842;2023-11-18T08:07:45;99278.53;;;1.53;78.41
80542;BME280;69870;51.460;8.842;2023-11-18T08:10:12;99273.94;;;1.54;78.37
80542;BME280;69870;51.460;8.842;2023-11-18T08:12:43;99279.59;;;1.42;78.61
80542;BME280;69870;51.460;8.842;2023-11-18T08:15:10;99273.44;;;1.36;78.41
80542;BME280;69870;51.460;8.842;2023-11-18T08:17:37;99267.28;;;1.46;78.26
80542;BME280;69870;51.460;8.842;2023-11-18T08:20:04;99248.69;;;1.75;78.73
80542;BME280;69870;51.460;8.842;2023-11-18T08:22:39;99241.66;;;2.86;75.98
80542;BME280;69870;51.460;8.842;2023-11-18T08:25:07;99244.28;;;4.38;71.31
80542;BME280;69870;51.460;8.842;2023-11-18T08:27:34;99238.50;;;5.60;67.77
80542;BME280;69870;51.460;8.842;2023-11-18T08:30:02;99229.97;;;5.85;66.92
80542;BME280;69870;51.460;8.842;2023-11-18T08:32:31;99228.00;;;5.45;67.96
80542;BME280;69870;51.460;8.842;2023-11-18T08:34:57;99228.75;;;4.86;68.96
80542;BME280;69870;51.460;8.842;2023-11-18T08:37:24;99233.78;;;4.18;71.50
80542;BME280;69870;51.460;8.842;2023-11-18T08:39:51;99232.00;;;3.66;72.91
80542;BME280;69870;51.460;8.842;2023-11-18T08:42:18;99238.31;;;3.28;73.92
80542;BME280;69870;51.460;8.842;2023-11-18T08:44:45;99241.47;;;3.07;74.81
80542;BME280;69870;51.460;8.842;2023-11-18T08:47:13;99250.25;;;3.17;74.60
80542;BME280;69870;51.460;8.842;2023-11-18T08:49:42;99262.88;;;4.16;72.87
80542;BME280;69870;51.460;8.842;2023-11-18T08:52:11;99258.81;;;5.26;70.22
80542;BME280;69870;51.460;8.842;2023-11-18T08:54:38;99268.13;;;5.01;69.92
80542;BME280;69870;51.460;8.842;2023-11-18T08:57:26;99270.25;;;4.85;71.07
80542;BME280;69870;51.460;8.842;2023-11-18T08:59:59;99262.41;;;5.80;68.28
80542;BME280;69870;51.460;8.842;2023-11-18T09:02:32;99259.34;;;6.14;67.81
80542;BME280;69870;51.460;8.842;2023-11-18T09:05:02;99264.16;;;6.17;67.48
80542;BME280;69870;51.460;8.842;2023-11-18T09:07:32;99263.03;;;6.05;67.63
80542;BME280;69870;51.460;8.842;2023-11-18T09:09:59;99261.16;;;5.91;68.54
80542;BME280;69870;51.460;8.842;2023-11-18T09:12:28;99266.44;;;6.24;67.89
80542;BME280;69870;51.460;8.842;2023-11-18T09:14:55;99266.72;;;6.36;67.70
80542;BME280;69870;51.460;8.842;2023-11-18T09:17:22;99251.13;;;6.33;67.64
80542;BME280;69870;51.460;8.842;2023-11-18T09:19:53;99260.16;;;6.15;68.66
80542;BME280;69870;51.460;8.842;2023-11-18T09:22:19;99254.16;;;5.90;68.88
80542;BME280;69870;51.460;8.842;2023-11-18T09:24:46;99248.41;;;5.65;69.87
80542;BME280;69870;51.460;8.842;2023-11-18T09:27:14;99256.09;;;5.44;70.40
80542;BME280;69870;51.460;8.842;2023-11-18T09:29:42;99250.00;;;5.20;70.95
80542;BME280;69870;51.460;8.842;2023-11-18T09:32:09;99249.34;;;4.96;71.63
80542;BME280;69870;51.460;8.842;2023-11-18T09:34:40;99255.03;;;4.76;72.46
80542;BME280;69870;51.460;8.842;2023-11-18T09:37:06;99256.13;;;4.56;73.41
80542;BME280;69870;51.460;8.842;2023-11-18T09:39:35;99254.75;;;4.40;73.94
80542;BME280;69870;51.460;8.842;2023-11-18T09:42:05;99255.19;;;4.28;74.18
80542;BME280;69870;51.460;8.842;2023-11-18T09:44:36;99256.56;;;4.26;74.66
80542;BME280;69870;51.460;8.842;2023-11-18T09:47:07;99249.13;;;4.18;74.94
80542;BME280;69870;51.460;8.842;2023-11-18T09:49:40;99240.53;;;4.16;74.86
80542;BME280;69870;51.460;8.842;2023-11-18T09:52:07;99237.56;;;4.17;74.94
80542;BME280;69870;51.460;8.842;2023-11-18T09:54:38;99232.69;;;4.19;74.85
80542;BME280;69870;51.460;8.842;2023-11-18T09:57:08;99225.66;;;4.23;75.35
80542;BME280;69870;51.460;8.842;2023-11-18T09:59:42;99219.97;;;4.25;74.67
80542;BME280;69870;51.460;8.842;2023-11-18T10:02:22;99214.59;;;4.43;74.71
80542;BME280;69870;51.460;8.842;2023-11-18T10:04:49;99218.94;;;4.77;74.04
80542;BME280;69870;51.460;8.842;2023-11-18T10:07:23;99209.25;;;5.08;74.08
80542;BME280;69870;51.460;8.842;2023-11-18T10:09:54;99186.84;;;5.26;72.98
80542;BME280;69870;51.460;8.842;2023-11-18T10:12:22;99184.63;;;5.28;72.62
80542;BME280;69870;51.460;8.842;2023-11-18T10:14:49;99185.63;;;5.32;73.14
80542;BME280;69870;51.460;8.842;2023-11-18T10:17:17;99177.25;;;5.34;73.19
80542;BME280;69870;51.460;8.842;2023-11-18T10:19:52;99175.84;;;5.36;72.91
80542;BME280;69870;51.460;8.842;2023-11-18T10:22:21;99180.34;;;5.41;73.66
80542;BME280;69870;51.460;8.842;2023-11-18T10:24:49;99181.97;;;5.42;73.72
80542;BME280;69870;51.460;8.842;2023-11-18T10:27:20;99186.34;;;5.38;73.33
80542;BME280;69870;51.460;8.842;2023-11-18T10:29:48;99190.84;;;5.29;73.94
80542;BME280;69870;51.460;8.842;2023-11-18T10:32:15;99190.69;;;5.20;74.62
80542;BME280;69870;51.460;8.842;2023-11-18T10:34:45;99184.13;;;5.12;74.31
80542;BME280;69870;51.460;8.842;2023-11-18T10:37:13;99199.56;;;5.07;75.34
80542;BME280;69870;51.460;8.842;2023-11-18T10:39:46;99192.47;;;4.97;75.32
80542;BME280;69870;51.460;8.842;2023-11-18T10:42:13;99187.53;;;4.86;75.33
80542;BME280;69870;51.460;8.842;2023-11-18T10:44:54;99189.81;;;4.79;76.34
80542;BME280;69870;51.460;8.842;2023-11-18T10:47:23;99186.97;;;4.70;76.39
80542;BME280;69870;51.460;8.842;2023-11-18T10:49:51;99181.03;;;4.73;76.61
80542;BME280;69870;51.460;8.842;2023-11-18T10:52:19;99168.25;;;4.79;77.07
80542;BME280;69870;51.460;8.842;2023-11-18T10:54:52;99165.13;;;4.72;77.34
80542;BME280;69870;51.460;8.842;2023-11-18T10:57:20;99159.75;;;4.72;77.18
80542;BME280;69870;51.460;8.842;2023-11-18T10:59:59;99159.75;;;4.72;77.09
80542;BME280;69870;51.460;8.842;2023-11-18T11:02:30;99156.53;;;4.70;77.96
80542;BME280;69870;51.460;8.842;2023-11-18T11:05:00;99148.97;;;4.72;77.21
80542;BME280;69870;51.460;8.842;2023-11-18T11:07:29;99134.06;;;4.61;77.75
80542;BME280;69870;51.460;8.842;2023-11-18T11:09:59;99148.03;;;4.63;77.78
80542;BME280;69870;51.460;8.842;2023-11-18T11:12:33;99159.63;;;4.63;77.81
80542;BME280;69870;51.460;8.842;2023-11-18T11:15:01;99151.84;;;4.62;77.97
80542;BME280;69870;51.460;8.842;2023-11-18T11:17:34;99147.47;;;4.66;78.03
80542;BME280;69870;51.460;8.842;2023-11-18T11:20:04;99155.66;;;4.74;78.09
80542;BME280;69870;51.460;8.842;2023-11-18T11:22:51;99134.13;;;4.74;78.25
80542;BME280;69870;51.460;8.842;2023-11-18T11:25:31;99130.06;;;4.58;78.41
80542;BME280;69870;51.460;8.842;2023-11-18T11:28:09;99112.59;;;4.56;78.53
80542;BME280;69870;51.460;8.842;2023-11-18T11:30:43;99103.38;;;4.62;78.34
80542;BME280;69870;51.460;8.842;2023-11-18T11:33:14;99093.97;;;4.59;78.77
80542;BME280;69870;51.460;8.842;2023-11-18T11:35:53;99083.69;;;4.61;79.06
80542;BME280;69870;51.460;8.842;2023-11-18T11:38:24;99071.84;;;4.62;78.30
80542;BME280;69870;51.460;8.842;2023-11-18T11:40:53;99065.47;;;4.72;78.97
80542;BME280;69870;51.460;8.842;2023-11-18T11:43:20;99067.06;;;4.73;78.88
80542;BME280;69870;51.460;8.842;2023-11-18T11:45:49;99070.25;;;4.75;78.73
80542;BME280;69870;51.460;8.842;2023-11-18T11:48:17;99077.22;;;4.76;77.94
80542;BME280;69870;51.460;8.842;2023-11-18T11:51:03;99092.19;;;4.68;79.02
80542;BME280;69870;51.460;8.842;2023-11-18T11:53:44;99091.41;;;4.68;78.53
80542;BME280;69870;51.460;8.842;2023-11-18T11:56:12;99098.41;;;4.69;77.99
80542;BME280;69870;51.460;8.842;2023-11-18T11:58:45;99103.16;;;4.72;78.22
80542;BME280;69870;51.460;8.842;2023-11-18T12:01:22;99104.38;;;4.66;78.35
80542;BME280;69870;51.460;8.842;2023-11-18T12:03:56;99094.16;;;4.63;78.96
80542;BME280;69870;51.460;8.842;2023-11-18T12:06:23;99079.31;;;4.65;78.44
80542;BME280;69870;51.460;8.842;2023-11-18T12:08:53;99080.13;;;4.66;79.16
80542;BME280;69870;51.460;8.842;2023-11-18T12:11:20;99078.31;;;4.61;78.87
80542;BME280;69870;51.460;8.842;2023-11-18T12:14:01;99075.00;;;4.51;79.62
80542;BME280;69870;51.460;8.842;2023-11-18T12:16:57;99078.47;;;4.37;79.57
80542;BME280;69870;51.460;8.842;2023-11-18T12:19:29;99083.41;;;4.30;80.05
80542;BME280;69870;51.460;8.842;2023-11-18T12:21:56;99076.22;;;4.26;80.22
80542;BME280;69870;51.460;8.842;2023-11-18T12:24:27;99079.72;;;4.26;80.18
80542;BME280;69870;51.460;8.842;2023-11-18T12:26:54;99077.66;;;4.18;80.15
80542;BME280;69870;51.460;8.842;2023-11-18T12:29:31;99066.34;;;4.21;79.89
80542;BME280;69870;51.460;8.842;2023-11-18T12:31:58;99063.06;;;4.24;80.54
80542;BME280;69870;51.460;8.842;2023-11-18T12:34:24;99058.19;;;4.26;80.02
80542;BME280;69870;51.460;8.842;2023-11-18T12:43:02;99033.22;;;4.21;79.89
80542;BME280;69870;51.460;8.842;2023-11-18T12:48:41;99037.03;;;4.33;79.91
80542;BME280;69870;51.460;8.842;2023-11-18T12:51:10;99036.97;;;4.38;80.02
80542;BME280;69870;51.460;8.842;2023-11-18T12:53:47;99028.69;;;4.35;79.60
80542;BME280;69870;51.460;8.842;2023-11-18T12:56:15;99031.09;;;4.36;79.33
80542;BME280;69870;51.460;8.842;2023-11-18T12:58:43;99023.50;;;4.38;80.19
80542;BME280;69870;51.460;8.842;2023-11-18T13:01:10;99014.63;;;4.38;80.27
80542;BME280;69870;51.460;8.842;2023-11-18T13:03:39;99014.63;;;4.38;79.73
80542;BME280;69870;51.460;8.842;2023-11-18T13:06:07;99007.84;;;4.40;80.19
80542;BME280;69870;51.460;8.842;2023-11-18T13:08:34;99000.56;;;4.41;80.01
80542;BME280;69870;51.460;8.842;2023-11-18T13:11:02;98995.38;;;4.44;80.00
80542;BME280;69870;51.460;8.842;2023-11-18T13:13:31;98990.53;;;4.47;80.22
80542;BME280;69870;51.460;8.842;2023-11-18T13:16:00;98986.81;;;4.42;80.08
80542;BME280;69870;51.460;8.842;2023-11-18T13:18:41;98982.16;;;4.48;80.69
80542;BME280;69870;51.460;8.842;2023-11-18T13:21:13;98970.25;;;4.49;81.20
80542;BME280;69870;51.460;8.842;2023-11-18T13:23:40;98961.28;;;4.54;80.53